createdAt,value
2018-08-21T00:02:02.459Z,0
2018-08-21T00:12:02.535Z,0
2018-08-21T00:22:02.447Z,0
2018-08-21T00:32:02.529Z,0
2018-08-21T00:42:02.748Z,0
2018-08-21T00:52:02.394Z,0
2018-08-21T01:02:02.550Z,0
2018-08-21T01:12:02.465Z,0
2018-08-21T01:22:11.136Z,0
2018-08-21T01:32:43.386Z,0
2018-08-21T01:42:02.369Z,0
2018-08-21T01:52:02.474Z,0
2018-08-21T02:02:02.430Z,0
2018-08-21T02:12:02.388Z,0
2018-08-21T02:22:02.458Z,0
2018-08-21T02:32:02.472Z,0
2018-08-21T02:42:02.489Z,0
2018-08-21T02:52:02.518Z,0
2018-08-21T03:02:02.428Z,0
2018-08-21T03:12:02.478Z,0
2018-08-21T03:22:02.453Z,0
2018-08-21T03:32:02.493Z,0
2018-08-21T03:42:02.459Z,0
2018-08-21T03:52:02.512Z,4
2018-08-21T04:02:02.431Z,20
2018-08-21T04:12:02.452Z,80
2018-08-21T04:22:02.566Z,224
2018-08-21T04:32:02.598Z,524
2018-08-21T04:42:02.448Z,1028
2018-08-21T04:52:02.556Z,1632
2018-08-21T05:02:02.439Z,2216
2018-08-21T05:12:02.465Z,2768
2018-08-21T05:22:02.619Z,3432
2018-08-21T05:32:02.488Z,4096
2018-08-21T05:42:02.536Z,4748
2018-08-21T05:52:02.597Z,5752
2018-08-21T06:02:02.491Z,7024
2018-08-21T06:12:02.451Z,10240
2018-08-21T06:22:02.466Z,12284
2018-08-21T06:32:02.592Z,13212
2018-08-21T06:42:02.478Z,14636
2018-08-21T06:52:02.436Z,15184
2018-08-21T07:02:02.465Z,16720
2018-08-21T07:12:02.443Z,17536
2018-08-21T07:22:02.495Z,17868
2018-08-21T07:32:02.536Z,16740
2018-08-21T07:42:02.549Z,15520
2018-08-21T07:52:02.512Z,14208
2018-08-21T08:02:02.513Z,14380
2018-08-21T08:12:02.454Z,16548
2018-08-21T08:22:02.519Z,18204
2018-08-21T08:32:02.516Z,19360
2018-08-21T08:42:02.568Z,17808
2018-08-21T08:52:02.506Z,17416
2018-08-21T09:02:02.490Z,17756
2018-08-21T09:12:02.533Z,15688
2018-08-21T09:22:02.566Z,13880
2018-08-21T09:32:02.509Z,14856
2018-08-21T09:42:02.538Z,17380
2018-08-21T09:52:02.487Z,14960
2018-08-21T10:02:02.519Z,15452
2018-08-21T10:12:02.568Z,14308
2018-08-21T10:22:02.532Z,13160
2018-08-21T10:32:02.525Z,14260
2018-08-21T10:42:02.527Z,16288
2018-08-21T10:52:02.573Z,20000
2018-08-21T11:02:02.538Z,20064
2018-08-21T11:12:02.594Z,19328
2018-08-21T11:22:02.537Z,16660
2018-08-21T11:32:02.569Z,16724
2018-08-21T11:42:02.562Z,16680
2018-08-21T11:52:02.534Z,17144
2018-08-21T12:02:02.651Z,11116
2018-08-21T12:12:02.540Z,8144
2018-08-21T12:22:02.574Z,8592
2018-08-21T12:32:02.670Z,7652
2018-08-21T12:42:02.909Z,7228
2018-08-21T12:52:02.633Z,10168
2018-08-21T13:02:02.622Z,11644
2018-08-21T13:12:02.646Z,13692
2018-08-21T13:22:02.561Z,13292
2018-08-21T13:32:02.590Z,13480
2018-08-21T13:42:02.578Z,12556
2018-08-21T13:52:02.595Z,11984
2018-08-21T14:02:02.675Z,11596
2018-08-21T14:12:02.744Z,11444
2018-08-21T14:22:02.677Z,12524
2018-08-21T14:32:02.720Z,11260
2018-08-21T14:42:02.667Z,10432
2018-08-21T14:52:02.643Z,11172
2018-08-21T15:02:02.636Z,10352
2018-08-21T15:12:02.682Z,9960
2018-08-21T15:22:02.639Z,8816
2018-08-21T15:32:02.727Z,7716
2018-08-21T15:42:02.671Z,6536
2018-08-21T15:52:02.646Z,6276
2018-08-21T16:02:02.669Z,6600
2018-08-21T16:12:02.719Z,6392
2018-08-21T16:22:02.669Z,5876
2018-08-21T16:32:02.675Z,4680
2018-08-21T16:42:02.733Z,4488
2018-08-21T16:52:02.753Z,3964
2018-08-21T17:02:02.840Z,3560
2018-08-21T17:12:02.644Z,2944
2018-08-21T17:22:02.733Z,2496
2018-08-21T17:32:02.656Z,1960
2018-08-21T17:42:02.709Z,1672
2018-08-21T17:52:02.732Z,1376
2018-08-21T18:02:02.710Z,1080
2018-08-21T18:12:02.745Z,808
2018-08-21T18:22:02.713Z,528
2018-08-21T18:32:02.787Z,324
2018-08-21T18:42:02.694Z,152
2018-08-21T18:52:02.879Z,52
2018-08-21T19:02:02.703Z,12
2018-08-21T19:12:02.700Z,0
2018-08-21T19:22:02.788Z,4
2018-08-21T19:32:02.823Z,0
2018-08-21T19:42:02.700Z,0
2018-08-21T19:52:02.814Z,0
2018-08-21T20:02:02.748Z,0
2018-08-21T20:12:02.791Z,0
2018-08-21T20:22:02.769Z,0
2018-08-21T20:32:02.762Z,0
2018-08-21T20:42:02.706Z,0
2018-08-21T20:52:02.760Z,0
2018-08-21T21:02:02.692Z,0
2018-08-21T21:12:02.792Z,0
2018-08-21T21:22:02.740Z,0
2018-08-21T21:32:03.159Z,0
2018-08-21T21:42:02.817Z,0
2018-08-21T21:52:02.679Z,0
2018-08-21T22:02:02.780Z,0
2018-08-21T22:12:02.813Z,0
2018-08-21T22:22:02.784Z,0
2018-08-21T22:32:02.708Z,0
2018-08-21T22:42:02.690Z,0
2018-08-21T22:52:02.838Z,0
2018-08-21T23:02:02.770Z,0
2018-08-21T23:12:02.691Z,0
2018-08-21T23:22:02.787Z,0
2018-08-21T23:32:02.755Z,0
2018-08-21T23:42:02.702Z,0
2018-08-21T23:52:02.774Z,0
